Time;durP1;ratioP1;P1;durP2;ratioP2;P2;SDS_P1;SDS_P2;PMS_P1;PMS_P2;Temp;Humidity;BMP_temperature;BMP_pressure;BME280_temperature;BME280_humidity;BME280_pressure;Samples;Min_cycle;Max_cycle;Signal;HPM_P1;HPM_P2
2024/02/07 00:00:07;;;;;;;8.93;4.80;;;;;;;11.93;34.99;99486.16;5031815;28;20033;-39
2024/02/07 00:02:32;;;;;;;8.88;5.30;;;;;;;12.19;34.63;99488.84;5032340;28;20025;-27
2024/02/07 00:04:58;;;;;;;7.47;4.70;;;;;;;12.07;34.70;99480.72;5032647;28;20028;-27
2024/02/07 00:07:23;;;;;;;8.80;4.70;;;;;;;11.96;34.50;99484.94;5032705;28;20037;-26
2024/02/07 00:09:48;;;;;;;8.10;4.43;;;;;;;12.22;34.46;99483.88;5032415;28;20029;-27
2024/02/07 00:12:14;;;;;;;13.63;4.65;;;;;;;12.22;34.18;99483.03;5032249;28;20025;-27
2024/02/07 00:14:39;;;;;;;9.00;4.50;;;;;;;12.29;34.74;99481.13;5032213;28;20026;-38
2024/02/07 00:17:04;;;;;;;9.65;4.72;;;;;;;12.27;34.89;99485.88;5031772;28;20037;-41
2024/02/07 00:19:30;;;;;;;9.95;4.72;;;;;;;12.36;34.91;99486.41;5031978;28;20013;-39
2024/02/07 00:21:56;;;;;;;9.13;4.90;;;;;;;12.34;34.23;99489.28;5031460;28;20052;-40
2024/02/07 00:24:21;;;;;;;9.15;4.80;;;;;;;12.42;34.30;99489.00;5032026;28;20100;-38
2024/02/07 00:26:48;;;;;;;7.78;4.57;;;;;;;12.44;34.30;99502.94;5031554;28;20022;-39
2024/02/07 00:29:13;;;;;;;8.73;4.70;;;;;;;12.58;33.59;99495.59;5032086;28;20057;-40
2024/02/07 00:31:39;;;;;;;9.35;4.47;;;;;;;12.40;34.58;99496.41;5031957;28;20056;-40
2024/02/07 00:34:04;;;;;;;9.95;4.25;;;;;;;12.49;33.64;99488.94;5031626;28;20036;-40
2024/02/07 00:36:29;;;;;;;7.60;3.83;;;;;;;12.58;33.55;99498.25;5031755;28;20021;-40
2024/02/07 00:38:55;;;;;;;10.23;4.40;;;;;;;12.56;33.94;99495.00;5031808;28;20073;-40
2024/02/07 00:41:22;;;;;;;9.35;4.10;;;;;;;12.49;33.96;99488.94;5031725;28;20021;-40
2024/02/07 00:43:48;;;;;;;8.00;3.92;;;;;;;12.62;33.58;99491.47;5031780;28;20071;-39
2024/02/07 00:46:14;;;;;;;7.70;4.10;;;;;;;12.44;34.02;99478.91;5031785;28;20025;-40
2024/02/07 00:48:40;;;;;;;7.97;4.10;;;;;;;12.54;33.59;99481.06;5031781;28;20080;-40
2024/02/07 00:51:06;;;;;;;8.57;4.10;;;;;;;12.76;33.24;99477.97;5031664;28;20036;-40
2024/02/07 00:53:31;;;;;;;8.50;3.88;;;;;;;12.47;34.08;99470.47;5031563;28;20025;-39
2024/02/07 00:55:56;;;;;;;11.32;4.20;;;;;;;12.56;33.29;99476.31;5031430;28;20056;-40
2024/02/07 00:58:22;;;;;;;8.13;3.70;;;;;;;12.45;33.47;99480.56;5031385;28;20074;-39
2024/02/07 01:00:48;;;;;;;9.98;3.65;;;;;;;12.61;33.86;99476.47;5031201;28;20052;-40
2024/02/07 01:03:13;;;;;;;8.68;3.67;;;;;;;12.52;34.11;99469.78;5031284;28;20696;-39
2024/02/07 01:05:39;;;;;;;9.13;4.03;;;;;;;12.49;34.00;99471.06;5031040;28;20385;-39
2024/02/07 01:08:04;;;;;;;6.97;4.10;;;;;;;12.38;33.70;99460.31;5030989;28;20026;-40
2024/02/07 01:10:30;;;;;;;10.20;4.40;;;;;;;12.15;34.26;99455.59;5031087;28;20036;-40
2024/02/07 01:12:55;;;;;;;7.68;4.20;;;;;;;12.02;34.62;99467.25;5030739;28;20683;-40
2024/02/07 01:15:20;;;;;;;9.20;4.22;;;;;;;12.24;34.96;99464.97;5030677;28;20026;-40
2024/02/07 01:17:46;;;;;;;10.00;3.97;;;;;;;11.88;35.56;99466.50;5030528;28;20115;-40
2024/02/07 01:20:11;;;;;;;7.25;3.75;;;;;;;12.09;34.47;99463.47;5031202;28;20029;-40
2024/02/07 01:22:37;;;;;;;8.20;3.70;;;;;;;12.04;35.17;99465.16;5031105;28;20087;-39
2024/02/07 01:25:05;;;;;;;10.88;3.58;;;;;;;12.01;35.08;99455.75;5030826;28;20477;-40
2024/02/07 01:27:30;;;;;;;7.45;3.45;;;;;;;11.91;35.68;99455.44;5031267;28;20049;-40
2024/02/07 01:29:57;;;;;;;6.80;3.47;;;;;;;11.88;34.72;99454.00;5031061;28;20473;-40
2024/02/07 01:32:22;;;;;;;5.10;3.38;;;;;;;12.01;34.77;99460.25;5030778;28;20026;-39
2024/02/07 01:34:48;;;;;;;4.75;3.20;;;;;;;11.96;35.03;99444.94;5031066;28;20031;-40
2024/02/07 01:37:14;;;;;;;5.95;3.33;;;;;;;12.25;34.41;99461.28;5030777;28;20125;-38
2024/02/07 01:39:40;;;;;;;6.40;3.10;;;;;;;12.11;34.59;99466.75;5033310;28;20049;-38
2024/02/07 01:42:05;;;;;;;6.13;2.97;;;;;;;12.30;34.76;99466.78;5034922;28;20060;-40
2024/02/07 01:44:31;;;;;;;5.70;3.05;;;;;;;12.35;34.17;99464.22;5034710;28;20469;-37
2024/02/07 01:47:13;;;;;;;5.07;3.00;;;;;;;12.28;33.82;99452.81;5034806;28;20037;-40
2024/02/07 01:49:48;;;;;;;4.13;2.80;;;;;;;12.24;34.22;99464.97;5034574;28;20025;-37
2024/02/07 01:52:15;;;;;;;5.53;2.85;;;;;;;12.06;34.42;99450.56;5034547;28;20039;-37
2024/02/07 01:54:41;;;;;;;4.72;2.90;;;;;;;12.27;34.14;99454.66;5034435;28;20053;-39
2024/02/07 01:57:07;;;;;;;4.65;2.70;;;;;;;12.19;34.71;99460.28;5034333;28;20036;-40
2024/02/07 01:59:35;;;;;;;4.90;2.80;;;;;;;12.07;34.53;99454.88;5034601;28;20036;-39
2024/02/07 02:02:01;;;;;;;4.60;2.90;;;;;;;12.17;34.30;99453.56;5034417;28;20039;-40
2024/02/07 02:04:28;;;;;;;5.40;2.72;;;;;;;12.11;34.86;99445.41;5034238;28;20064;-38
2024/02/07 02:06:53;;;;;;;6.03;2.95;;;;;;;12.05;35.07;99453.44;5034391;28;20049;-38
2024/02/07 02:09:19;;;;;;;3.95;2.65;;;;;;;12.15;34.41;99444.94;5034314;28;20520;-40
2024/02/07 02:11:48;;;;;;;3.60;2.65;;;;;;;12.19;34.42;99446.16;5034531;28;20029;-38
2024/02/07 02:14:15;;;;;;;3.30;2.30;;;;;;;12.26;34.14;99446.88;5034701;28;20028;-39
2024/02/07 02:16:40;;;;;;;6.22;2.67;;;;;;;12.26;34.29;99452.22;5034149;28;20421;-40
2024/02/07 02:19:07;;;;;;;5.00;3.00;;;;;;;12.24;34.39;99456.97;5033967;28;20470;-40
2024/02/07 02:21:50;;;;;;;4.25;2.53;;;;;;;12.30;34.05;99453.44;5034205;28;20079;-40
2024/02/07 02:24:18;;;;;;;8.25;2.80;;;;;;;12.31;34.27;99447.03;5014139;28;20026;-39
2024/02/07 02:27:10;;;;;;;4.30;2.50;;;;;;;12.47;33.68;99442.94;5016384;28;20041;-41
2024/02/07 02:29:42;;;;;;;4.75;2.40;;;;;;;12.55;33.66;99447.19;5014420;28;20030;-39
2024/02/07 02:32:09;;;;;;;4.57;2.40;;;;;;;12.62;33.26;99451.41;5014136;28;20378;-40
2024/02/07 02:34:37;;;;;;;5.45;2.70;;;;;;;12.70;33.83;99444.97;5013989;28;20040;-40
2024/02/07 02:37:04;;;;;;;4.80;2.53;;;;;;;12.74;33.34;99448.81;5013948;28;20060;-40
2024/02/07 02:39:30;;;;;;;6.55;2.78;;;;;;;12.90;33.11;99447.34;5013621;28;20059;-40
2024/02/07 02:41:56;;;;;;;4.93;2.90;;;;;;;12.81;33.47;99433.53;5014078;28;20116;-40
2024/02/07 02:44:26;;;;;;;4.88;2.60;;;;;;;13.09;32.86;99446.28;5014151;28;20117;-39
2024/02/07 02:46:52;;;;;;;7.85;3.00;;;;;;;13.14;32.79;99453.63;5013879;28;20426;-40
2024/02/07 02:49:18;;;;;;;5.65;2.88;;;;;;;13.13;32.87;99451.97;5013554;28;20034;-40
2024/02/07 02:51:43;;;;;;;5.05;2.70;;;;;;;13.19;32.70;99451.06;5013924;28;20084;-41
2024/02/07 02:54:08;;;;;;;5.22;2.80;;;;;;;13.42;32.47;99450.38;5013544;28;20097;-40
2024/02/07 02:56:35;;;;;;;5.13;2.90;;;;;;;13.25;33.04;99441.31;5013791;28;20037;-40
2024/02/07 02:59:05;;;;;;;5.65;3.00;;;;;;;13.29;32.92;99440.66;5014033;28;20026;-40
2024/02/07 03:01:31;;;;;;;5.95;3.40;;;;;;;13.40;32.82;99443.59;5013486;28;20052;-40
2024/02/07 03:03:57;;;;;;;6.47;3.00;;;;;;;13.39;32.62;99440.13;5013726;28;20038;-41
2024/02/07 03:06:29;;;;;;;5.60;3.22;;;;;;;13.27;33.00;99441.94;5013820;28;20462;-40
2024/02/07 03:09:06;;;;;;;6.05;3.20;;;;;;;13.51;32.79;99431.31;5013457;28;20030;-40
2024/02/07 03:11:32;;;;;;;4.13;2.70;;;;;;;13.28;33.22;99431.00;5013586;28;20117;-39
2024/02/07 03:13:57;;;;;;;5.38;2.55;;;;;;;13.29;33.09;99424.63;5013036;28;20120;-40
2024/02/07 03:16:22;;;;;;;4.53;2.80;;;;;;;13.48;32.57;99420.03;5013225;28;20038;-40
2024/02/07 03:18:48;;;;;;;6.03;2.90;;;;;;;13.35;32.69;99424.78;5013025;28;20662;-39
2024/02/07 03:21:13;;;;;;;5.65;2.90;;;;;;;13.29;33.16;99424.63;5031272;28;20533;-39
2024/02/07 03:23:39;;;;;;;5.70;2.92;;;;;;;13.37;32.73;99420.81;5032950;28;20021;-39
2024/02/07 03:26:05;;;;;;;6.85;2.80;;;;;;;13.26;32.86;99416.25;5031477;28;20025;-39
2024/02/07 03:28:33;;;;;;;4.90;2.92;;;;;;;13.27;32.88;99420.56;5033274;28;20104;-38
2024/02/07 03:30:58;;;;;;;5.50;2.80;;;;;;;13.04;33.42;99416.78;5032849;28;20032;-39
2024/02/07 03:33:26;;;;;;;4.85;2.85;;;;;;;12.85;33.86;99425.84;5032721;28;20021;-38
2024/02/07 03:35:53;;;;;;;5.80;2.88;;;;;;;12.71;33.67;99423.34;5032683;28;20481;-39
2024/02/07 03:38:19;;;;;;;5.82;2.80;;;;;;;12.43;34.30;99428.44;5032338;28;20053;-38
2024/02/07 03:40:45;;;;;;;4.20;2.80;;;;;;;12.45;34.45;99418.34;5032449;28;20056;-37
2024/02/07 03:43:10;;;;;;;4.40;2.60;;;;;;;12.73;33.65;99425.81;5032257;28;20025;-39
2024/02/07 03:45:37;;;;;;;5.30;2.78;;;;;;;12.60;34.09;99426.78;5031082;28;20025;-38
2024/02/07 03:48:04;;;;;;;4.10;2.70;;;;;;;12.71;33.59;99423.34;5032773;28;20029;-39
2024/02/07 03:50:31;;;;;;;5.45;2.78;;;;;;;12.65;34.19;99424.25;5032602;28;20117;-40
2024/02/07 03:52:57;;;;;;;7.03;2.88;;;;;;;12.65;34.51;99426.13;5032495;28;20096;-39
2024/02/07 03:55:22;;;;;;;5.40;2.95;;;;;;;12.67;34.38;99421.38;5031776;28;20477;-39
2024/02/07 03:57:48;;;;;;;5.78;2.85;;;;;;;12.57;34.51;99416.56;5032351;28;20021;-39
2024/02/07 04:00:15;;;;;;;9.95;3.03;;;;;;;12.66;34.06;99419.72;5032710;28;20378;-39
2024/02/07 04:02:46;;;;;;;5.00;2.90;;;;;;;12.59;34.18;99414.50;5031362;28;20029;-39
2024/02/07 04:05:12;;;;;;;4.97;2.53;;;;;;;12.78;34.04;99423.28;5032205;28;20661;-39
2024/02/07 04:07:37;;;;;;;6.55;3.05;;;;;;;12.86;34.35;99430.97;5032046;28;20096;-39
2024/02/07 04:10:04;;;;;;;5.65;2.63;;;;;;;12.96;33.81;99429.63;5032270;28;20049;-38
2024/02/07 05:17:30;;;;;;;5.70;3.47;;;;;;;12.76;35.44;99392.53;5031614;28;20124;-39
2024/02/07 05:19:57;;;;;;;6.90;3.33;;;;;;;12.64;35.58;99398.63;5031499;28;20091;-40
2024/02/07 05:22:23;;;;;;;5.47;3.47;;;;;;;12.69;35.43;99400.59;5031431;28;20033;-40
2024/02/07 05:24:52;;;;;;;5.93;3.78;;;;;;;12.57;36.26;99400.56;5031354;28;20029;-40
2024/02/07 05:27:17;;;;;;;6.43;3.40;;;;;;;12.46;36.46;99396.78;5031386;28;20029;-39
2024/02/07 05:29:44;;;;;;;9.73;3.92;;;;;;;12.55;35.90;99402.63;5031735;28;20026;-40
2024/02/07 05:32:09;;;;;;;5.55;3.50;;;;;;;12.71;35.95;99403.84;5031320;28;20026;-40
2024/02/07 05:34:35;;;;;;;6.53;3.35;;;;;;;12.80;36.05;99404.38;5030531;28;20409;-41
2024/02/07 05:37:04;;;;;;;5.55;3.45;;;;;;;12.66;35.98;99420.56;5030358;28;20075;-40
2024/02/07 05:39:35;;;;;;;8.52;3.38;;;;;;;12.65;35.81;99416.25;5030346;28;20091;-40
2024/02/07 05:42:01;;;;;;;6.18;3.22;;;;;;;12.68;35.62;99412.34;5042761;28;20032;-39
2024/02/07 05:44:27;;;;;;;7.95;3.28;;;;;;;12.65;36.35;99418.13;5040878;28;20254;-40
2024/02/07 05:46:53;;;;;;;4.45;3.15;;;;;;;12.67;36.29;99419.50;5036730;28;20029;-40
2024/02/07 05:49:18;;;;;;;6.80;3.25;;;;;;;12.69;35.79;99417.44;5050060;28;20034;-40
2024/02/07 05:51:56;;;;;;;7.18;3.38;;;;;;;12.82;35.82;99431.66;5049086;28;20035;-38
2024/02/07 05:54:22;;;;;;;8.75;3.53;;;;;;;12.73;35.59;99425.00;5050487;28;20025;-40
2024/02/07 05:56:47;;;;;;;9.95;3.70;;;;;;;12.64;35.61;99424.47;5050456;28;20104;-39
2024/02/07 05:59:12;;;;;;;5.65;3.65;;;;;;;12.92;35.88;99429.25;5050320;28;20107;-40
2024/02/07 06:01:38;;;;;;;7.43;3.80;;;;;;;12.62;36.37;99435.41;5050421;28;20040;-40
2024/02/07 06:04:06;;;;;;;11.50;3.83;;;;;;;12.77;35.83;99435.00;5039435;28;20052;-41
2024/02/07 06:06:31;;;;;;;7.28;3.67;;;;;;;12.79;36.04;99437.44;5030379;28;20029;-41
2024/02/07 06:08:58;;;;;;;6.53;3.60;;;;;;;13.14;35.46;99447.47;5030486;28;20543;-40
2024/02/07 06:11:31;;;;;;;8.32;3.70;;;;;;;13.29;35.55;99440.66;5030337;28;20061;-40
2024/02/07 06:13:57;;;;;;;8.10;4.18;;;;;;;13.66;34.77;99445.03;5037530;28;20428;-41
2024/02/07 06:16:22;;;;;;;10.32;3.70;;;;;;;13.81;33.89;99441.94;5050408;28;20486;-40
2024/02/07 06:18:48;;;;;;;9.40;3.70;;;;;;;13.89;33.92;99439.69;5050225;28;20053;-40
2024/02/07 06:21:13;;;;;;;7.57;3.60;;;;;;;14.52;33.12;99441.84;5032368;28;20025;-41
2024/02/07 06:23:38;;;;;;;14.80;3.90;;;;;;;14.83;32.11;99438.78;5047575;28;20484;-40
2024/02/07 06:26:04;;;;;;;6.75;3.90;;;;;;;14.89;32.76;99446.88;5052805;28;20703;-40
2024/02/07 06:28:29;;;;;;;5.55;3.60;;;;;;;14.92;32.33;99444.53;5042161;28;20109;-40
2024/02/07 06:30:54;;;;;;;7.80;3.35;;;;;;;15.23;31.83;99445.94;5048201;28;20090;-41
2024/02/07 06:33:20;;;;;;;10.32;3.40;;;;;;;15.58;31.85;99452.16;5054150;28;20032;-42
2024/02/07 06:35:45;;;;;;;6.85;3.65;;;;;;;15.72;31.04;99458.00;5054458;28;20044;-40
2024/02/07 06:38:10;;;;;;;9.05;3.42;;;;;;;15.77;31.12;99456.22;5053813;28;20083;-42
2024/02/07 06:40:36;;;;;;;8.38;3.47;;;;;;;15.79;31.25;99458.69;5036451;28;20037;-41
2024/02/07 06:43:01;;;;;;;5.45;3.40;;;;;;;15.76;31.29;99459.16;5039705;28;20179;-40
2024/02/07 06:45:27;;;;;;;7.15;3.50;;;;;;;16.00;30.73;99452.56;5053713;28;20116;-40
2024/02/07 06:47:52;;;;;;;5.82;3.58;;;;;;;15.79;30.92;99459.47;5053385;28;20080;-40
2024/02/07 06:50:17;;;;;;;10.57;3.50;;;;;;;15.89;30.76;99453.47;5053452;28;20067;-39
2024/02/07 06:52:43;;;;;;;8.88;4.35;;;;;;;16.03;31.39;99448.59;5051910;28;20025;-41
2024/02/07 06:55:08;;;;;;;8.52;3.95;;;;;;;15.85;31.23;99459.56;5053692;28;20047;-41
2024/02/07 06:57:34;;;;;;;7.78;3.30;;;;;;;15.62;31.04;99451.41;5033573;28;20072;-40
2024/02/07 06:59:59;;;;;;;5.78;3.58;;;;;;;15.46;30.98;99449.53;5033035;28;20404;-42
2024/02/07 07:02:24;;;;;;;6.95;3.22;;;;;;;15.36;31.21;99455.53;5033634;28;20094;-40
2024/02/07 07:04:50;;;;;;;6.20;3.28;;;;;;;15.45;31.79;99455.94;5033428;28;20561;-42
2024/02/07 07:07:16;;;;;;;6.00;3.50;;;;;;;15.27;31.65;99458.84;5036487;28;20493;-42
2024/02/07 07:09:41;;;;;;;8.30;3.53;;;;;;;15.36;32.21;99460.88;5053407;28;20082;-40
2024/02/07 07:12:07;;;;;;;13.40;4.15;;;;;;;15.33;31.49;99457.91;5052429;28;20029;-42
2024/02/07 07:14:32;;;;;;;7.03;3.22;;;;;;;15.50;31.86;99455.22;5038140;28;20025;-40
2024/02/07 07:16:58;;;;;;;7.95;3.58;;;;;;;15.47;32.27;99464.56;5033107;28;20110;-39
2024/02/07 07:19:23;;;;;;;7.13;3.85;;;;;;;15.65;31.57;99455.50;5033057;28;20576;-40
2024/02/07 07:21:48;;;;;;;8.98;3.67;;;;;;;16.02;30.70;99455.00;5046753;28;20164;-40
2024/02/07 07:24:14;;;;;;;7.30;3.50;;;;;;;16.70;30.12;99461.00;5036442;28;20076;-40
2024/02/07 07:26:39;;;;;;;7.18;3.05;;;;;;;17.05;30.06;99457.13;5033252;28;20040;-41
2024/02/07 07:29:04;;;;;;;6.72;3.30;;;;;;;17.28;29.34;99455.19;5033028;28;20472;-39
2024/02/07 07:31:30;;;;;;;6.53;3.65;;;;;;;18.15;28.27;99453.22;5044425;28;20028;-40
2024/02/07 07:33:56;;;;;;;8.68;3.60;;;;;;;18.62;27.62;99455.06;5043466;28;20108;-40
2024/02/07 07:36:22;;;;;;;11.73;3.50;;;;;;;18.46;27.50;99448.78;5044635;28;20024;-40
2024/02/07 07:38:47;;;;;;;6.90;3.35;;;;;;;17.67;28.49;99455.81;5040952;28;20039;-40
2024/02/07 07:41:13;;;;;;;12.60;6.45;;;;;;;18.05;28.24;99455.81;5035995;28;20021;-40
2024/02/07 07:43:38;;;;;;;7.88;3.88;;;;;;;18.31;28.46;99460.28;5044510;28;20473;-39
2024/02/07 07:46:03;;;;;;;11.35;4.10;;;;;;;18.37;28.32;99450.34;5041126;28;20021;-39
2024/02/07 07:48:29;;;;;;;7.03;3.60;;;;;;;18.36;28.15;99441.47;5040640;28;20021;-41
2024/02/07 07:50:54;;;;;;;10.95;5.80;;;;;;;18.59;27.98;99436.72;5021670;28;20041;-42
2024/02/07 07:53:20;;;;;;;8.10;3.83;;;;;;;18.54;28.25;99436.69;5029926;28;20408;-42
2024/02/07 07:55:45;;;;;;;5.97;3.42;;;;;;;18.03;28.85;99426.47;5032506;28;20240;-28
2024/02/07 07:58:11;;;;;;;8.15;3.22;;;;;;;18.28;28.71;99428.50;5032555;28;20017;-41
2024/02/07 08:00:36;;;;;;;4.78;3.30;;;;;;;18.15;29.06;99419.00;5032570;28;20462;-39
2024/02/07 08:03:03;;;;;;;8.07;3.35;;;;;;;18.24;29.15;99422.03;5032677;28;20035;-39
2024/02/07 08:05:28;;;;;;;5.10;3.40;;;;;;;18.47;28.76;99426.16;5032376;28;20452;-37
2024/02/07 08:07:54;;;;;;;5.82;3.10;;;;;;;18.08;29.49;99417.63;5032189;28;20021;-37
2024/02/07 08:10:19;;;;;;;8.05;3.42;;;;;;;18.69;29.03;99431.34;5030885;28;20037;-40
2024/02/07 08:12:44;;;;;;;6.53;3.40;;;;;;;18.89;28.81;99429.84;5031901;28;20096;-40
2024/02/07 08:15:10;;;;;;;7.68;3.30;;;;;;;18.30;29.70;99423.66;5032527;28;20056;-40
2024/02/07 08:17:35;;;;;;;5.28;3.10;;;;;;;17.61;30.86;99419.19;5031653;28;20050;-40
2024/02/07 08:20:01;;;;;;;6.75;3.42;;;;;;;17.78;30.75;99408.25;5031957;28;20516;-40
2024/02/07 08:22:26;;;;;;;7.35;3.50;;;;;;;18.38;30.06;99418.84;5032323;28;20026;-40
2024/02/07 08:24:53;;;;;;;6.60;3.30;;;;;;;18.60;29.96;99416.78;5029237;28;20374;-41
2024/02/07 08:27:19;;;;;;;7.80;3.55;;;;;;;18.49;30.34;99413.25;5020547;28;20401;-40
2024/02/07 08:29:44;;;;;;;6.13;3.47;;;;;;;18.66;30.13;99404.16;5031981;28;20033;-38
2024/02/07 08:32:09;;;;;;;6.18;3.83;;;;;;;18.84;29.96;99408.25;5031641;28;20029;-38
2024/02/07 08:34:35;;;;;;;4.40;3.10;;;;;;;18.84;30.10;99408.25;5031658;28;20036;-39
2024/02/07 08:37:00;;;;;;;7.20;3.47;;;;;;;18.43;30.50;99414.28;5031351;28;20037;-38
2024/02/07 08:39:25;;;;;;;8.90;3.92;;;;;;;18.59;30.49;99408.97;5030143;28;20029;-41
2024/02/07 08:41:51;;;;;;;11.00;4.38;;;;;;;19.54;29.40;99398.59;5027407;28;20163;-40
2024/02/07 08:44:16;;;;;;;6.38;4.22;;;;;;;18.31;31.03;99408.31;5031488;28;20017;-41
2024/02/07 08:46:43;;;;;;;8.70;4.22;;;;;;;18.62;30.48;99414.63;5031403;28;20580;-40
2024/02/07 08:49:08;;;;;;;11.18;4.10;;;;;;;18.81;30.22;99406.06;5028278;28;20461;-39
2024/02/07 08:51:34;;;;;;;7.15;3.90;;;;;;;18.91;30.07;99406.13;5021919;28;20032;-37
2024/02/07 08:53:59;;;;;;;8.80;3.70;;;;;;;18.54;30.62;99407.03;5031311;28;20029;-36
2024/02/07 08:56:24;;;;;;;7.30;4.10;;;;;;;18.61;30.92;99399.53;5031527;28;20029;-39
2024/02/07 08:58:50;;;;;;;7.63;3.97;;;;;;;18.47;30.72;99395.72;5029994;28;20053;-40
2024/02/07 09:01:17;;;;;;;7.05;3.80;;;;;;;18.70;30.62;99399.84;5031493;28;20029;-39
2024/02/07 09:03:42;;;;;;;7.18;4.40;;;;;;;19.17;30.23;99385.38;5031030;28;20087;-38
2024/02/07 09:06:10;;;;;;;9.98;4.53;;;;;;;19.19;29.73;99377.84;5017114;28;20329;-40
2024/02/07 09:08:35;;;;;;;8.07;4.05;;;;;;;19.26;29.57;99380.25;5011632;28;20045;-41
2024/02/07 09:11:01;;;;;;;8.48;4.40;;;;;;;18.89;29.86;99381.31;5031497;28;20029;-40
2024/02/07 09:13:26;;;;;;;7.15;4.18;;;;;;;19.23;29.36;99376.22;5031279;28;20412;-41
2024/02/07 09:15:51;;;;;;;7.00;3.83;;;;;;;18.99;30.06;99372.44;5031370;28;20036;-41
2024/02/07 09:18:17;;;;;;;8.45;4.43;;;;;;;19.10;29.57;99376.75;5031265;28;20476;-42
2024/02/07 09:20:42;;;;;;;7.80;4.40;;;;;;;19.56;29.34;99368.66;5030552;28;20030;-42
2024/02/07 09:23:08;;;;;;;10.40;4.13;;;;;;;20.17;28.47;99377.72;5031215;28;20113;-39
2024/02/07 09:25:33;;;;;;;7.65;4.13;;;;;;;20.09;28.60;99376.41;5031397;28;20440;-40
2024/02/07 09:27:59;;;;;;;8.23;4.15;;;;;;;19.82;28.59;99382.94;5031240;28;20017;-40
2024/02/07 09:30:24;;;;;;;8.95;4.20;;;;;;;19.84;28.86;99375.38;5030702;28;20216;-43
2024/02/07 09:32:49;;;;;;;10.25;4.88;;;;;;;20.38;27.96;99375.75;5031525;28;20033;-38
2024/02/07 09:35:15;;;;;;;14.55;4.40;;;;;;;20.45;27.82;99376.25;5031190;28;20025;-40
2024/02/07 09:37:41;;;;;;;7.18;3.63;;;;;;;20.18;28.15;99374.75;5031186;28;20036;-38
2024/02/07 09:40:07;;;;;;;8.18;3.97;;;;;;;19.68;28.46;99366.47;5030945;28;20092;-39
2024/02/07 09:42:37;;;;;;;6.30;4.05;;;;;;;19.36;28.84;99366.75;5030325;28;20036;-38
2024/02/07 09:45:05;;;;;;;7.20;3.90;;;;;;;19.35;28.90;99362.47;5031286;28;20033;-40
2024/02/07 09:47:35;;;;;;;7.85;4.57;;;;;;;19.14;29.62;99359.75;5031025;28;20022;-41
2024/02/07 09:50:02;;;;;;;7.82;4.53;;;;;;;19.14;29.07;99346.28;5030864;28;20033;-41
2024/02/07 09:52:31;;;;;;;6.00;3.75;;;;;;;19.21;29.54;99348.72;5030699;28;20120;-38
2024/02/07 09:54:58;;;;;;;10.68;3.47;;;;;;;19.37;29.38;99344.13;5029993;28;20067;-40
2024/02/07 09:57:26;;;;;;;7.88;3.50;;;;;;;19.39;29.32;99331.16;5030997;28;20078;-41
2024/02/07 09:59:52;;;;;;;5.30;3.47;;;;;;;19.81;29.17;99334.63;5031556;28;20110;-40
2024/02/07 10:02:21;;;;;;;9.20;3.70;;;;;;;19.76;28.73;99327.34;5034286;28;20573;-40
2024/02/07 10:04:51;;;;;;;9.60;3.90;;;;;;;19.83;28.81;99327.84;5034807;28;20033;-38
2024/02/07 10:07:18;;;;;;;8.93;3.85;;;;;;;19.73;29.18;99325.19;5034772;28;20025;-40
2024/02/07 10:09:49;;;;;;;8.80;3.80;;;;;;;20.16;28.58;99330.97;5034411;28;20032;-39
2024/02/07 10:12:15;;;;;;;7.28;3.60;;;;;;;20.15;28.73;99320.47;5034259;28;20021;-40
2024/02/07 10:14:42;;;;;;;6.38;3.70;;;;;;;20.22;28.65;99308.28;5034282;28;20029;-39
2024/02/07 10:17:08;;;;;;;7.15;4.03;;;;;;;20.07;29.21;99302.94;5034441;28;20066;-39
2024/02/07 10:19:34;;;;;;;8.52;3.80;;;;;;;20.38;28.51;99286.59;5034501;28;20378;-41
2024/02/07 10:22:00;;;;;;;6.60;4.32;;;;;;;20.16;29.07;99279.66;5034534;28;20037;-39
2024/02/07 10:24:32;;;;;;;14.52;3.97;;;;;;;20.34;28.87;99263.91;5034191;28;20029;-40
2024/02/07 10:26:57;;;;;;;4.25;3.20;;;;;;;20.29;28.69;99272.84;5034221;28;20053;-38
2024/02/07 10:29:25;;;;;;;6.47;3.85;;;;;;;19.82;29.25;99274.13;5034362;28;20497;-40
2024/02/07 10:31:54;;;;;;;8.80;3.53;;;;;;;19.41;29.98;99275.03;5034138;28;20494;-42
2024/02/07 10:34:21;;;;;;;5.43;3.10;;;;;;;19.50;29.58;99264.50;5033853;28;20100;-38
2024/02/07 10:36:46;;;;;;;7.55;3.80;;;;;;;19.83;28.77;99260.38;5034028;28;20478;-44
2024/02/07 10:39:12;;;;;;;7.63;3.80;;;;;;;19.74;28.74;99248.53;5034167;28;20031;-42
2024/02/07 10:41:38;;;;;;;6.72;3.80;;;;;;;20.14;28.16;99251.31;5033829;28;20040;-40
2024/02/07 10:44:10;;;;;;;6.07;3.50;;;;;;;20.00;27.81;99248.41;5033701;28;20025;-40
2024/02/07 10:46:35;;;;;;;8.65;3.75;;;;;;;20.09;27.82;99235.97;5033349;28;20055;-39
2024/02/07 10:49:02;;;;;;;10.10;4.00;;;;;;;20.24;27.58;99232.38;5020929;28;20018;-41
2024/02/07 10:51:31;;;;;;;5.75;3.60;;;;;;;20.27;27.20;99231.78;5014862;28;20068;-41
2024/02/07 10:54:03;;;;;;;7.47;4.05;;;;;;;19.80;27.55;99233.94;5014424;28;20030;-42
2024/02/07 10:56:33;;;;;;;6.10;3.75;;;;;;;19.89;27.08;99232.25;5013948;28;20220;-40
2024/02/07 10:58:59;;;;;;;7.63;3.85;;;;;;;19.95;27.34;99219.53;5014181;28;20389;-44
2024/02/07 11:01:26;;;;;;;7.75;3.60;;;;;;;20.12;27.25;99219.19;5014139;28;20087;-37
2024/02/07 11:03:52;;;;;;;4.85;3.47;;;;;;;20.19;27.09;99214.28;5014005;28;20026;-39
2024/02/07 11:06:18;;;;;;;6.10;3.97;;;;;;;19.83;27.38;99209.06;5022943;28;20072;-41
2024/02/07 11:08:43;;;;;;;10.27;4.18;;;;;;;19.90;27.30;99216.88;5042243;28;20119;-39
2024/02/07 11:11:08;;;;;;;6.95;3.75;;;;;;;20.08;27.31;99207.31;5041914;28;20033;-39
2024/02/07 11:13:35;;;;;;;5.80;3.50;;;;;;;20.03;27.90;99194.66;5039770;28;20120;-39
2024/02/07 11:16:01;;;;;;;8.85;3.60;;;;;;;20.16;27.63;99187.81;5045039;28;20088;-39
2024/02/07 11:18:26;;;;;;;7.25;3.53;;;;;;;20.28;27.47;99185.59;5037796;28;20057;-40
2024/02/07 11:20:54;;;;;;;8.85;4.05;;;;;;;20.35;27.09;99176.34;5041531;28;20025;-40
2024/02/07 11:23:35;;;;;;;7.68;3.50;;;;;;;20.50;27.29;99187.03;5033141;28;20504;-40
2024/02/07 11:26:02;;;;;;;9.40;4.07;;;;;;;20.47;27.03;99182.22;5032433;28;20462;-40
2024/02/07 11:28:28;;;;;;;6.82;3.42;;;;;;;20.44;26.81;99175.47;5032625;28;20029;-41
2024/02/07 11:30:55;;;;;;;7.22;3.58;;;;;;;20.27;27.21;99166.94;5033166;28;20087;-38
2024/02/07 11:33:21;;;;;;;7.88;3.55;;;;;;;20.48;27.06;99160.28;5032688;28;20029;-39
2024/02/07 11:35:46;;;;;;;4.93;3.33;;;;;;;20.27;27.45;99161.56;5033033;28;20393;-38
2024/02/07 11:38:12;;;;;;;8.55;3.75;;;;;;;20.35;27.05;99155.53;5032135;28;20477;-42
2024/02/07 11:40:42;;;;;;;6.63;3.40;;;;;;;20.35;27.15;99152.03;5032433;28;20032;-37
2024/02/07 11:43:17;;;;;;;8.10;3.63;;;;;;;20.77;26.82;99142.50;5032684;28;20029;-37
2024/02/07 11:45:43;;;;;;;10.05;3.67;;;;;;;20.68;26.65;99150.44;5032360;28;20033;-40
2024/02/07 11:48:19;;;;;;;4.00;3.00;;;;;;;20.28;26.93;99136.97;5032876;28;20021;-38
2024/02/07 11:50:45;;;;;;;6.60;3.60;;;;;;;20.55;26.98;99143.75;5032141;28;20059;-39
2024/02/07 11:53:40;;;;;;;8.32;3.70;;;;;;;20.59;26.81;99138.59;5032271;28;20037;-40
2024/02/07 11:56:11;;;;;;;6.88;3.28;;;;;;;20.31;27.14;99133.69;5032243;28;20045;-36
2024/02/07 11:58:37;;;;;;;5.50;3.33;;;;;;;20.49;26.65;99128.69;5032397;28;20114;-42
2024/02/07 12:01:06;;;;;;;4.57;3.15;;;;;;;20.35;27.08;99122.31;5031840;28;20111;-39
2024/02/07 12:03:31;;;;;;;7.50;3.42;;;;;;;20.47;26.69;99122.75;5032089;28;20067;-45
2024/02/07 12:05:57;;;;;;;5.18;3.22;;;;;;;20.50;26.83;99114.91;5032161;28;20053;-44
2024/02/07 12:08:23;;;;;;;6.63;3.42;;;;;;;20.82;26.94;99112.72;5032080;28;20100;-39
2024/02/07 12:10:50;;;;;;;9.05;3.38;;;;;;;21.17;26.22;99113.41;5031867;28;20464;-39
2024/02/07 12:13:16;;;;;;;7.15;3.15;;;;;;;21.11;26.16;99120.78;5032279;28;20087;-42
2024/02/07 12:15:42;;;;;;;6.60;3.63;;;;;;;20.83;26.74;99117.06;5022986;28;20478;-40
2024/02/07 12:18:08;;;;;;;7.70;4.85;;;;;;;20.88;26.55;99115.06;5024842;28;20108;-38
2024/02/07 12:20:33;;;;;;;6.07;3.50;;;;;;;21.08;25.96;99115.97;5016039;28;20499;-43
2024/02/07 12:23:00;;;;;;;6.05;3.35;;;;;;;21.02;25.92;99109.81;5031429;28;20032;-44
2024/02/07 12:25:25;;;;;;;7.68;3.35;;;;;;;21.31;25.83;99108.91;5037124;28;20443;-43
2024/02/07 12:27:50;;;;;;;7.93;3.17;;;;;;;20.95;26.42;99101.22;5037697;28;20044;-40
2024/02/07 12:30:16;;;;;;;6.00;3.38;;;;;;;21.08;25.91;99089.72;5042282;28;20552;-38
2024/02/07 12:32:41;;;;;;;5.57;3.60;;;;;;;20.65;26.86;99089.63;5040406;28;20048;-41